sensor_id;sensor_type;location;lat;lon;timestamp;P1;durP1;ratioP1;P2;durP2;ratioP2
67508;SDS011;54354;44.724;11.284;2022-08-21T00:01:20;2.33;;;1.50;;
67508;SDS011;54354;44.724;11.284;2022-08-21T00:06:15;3.67;;;1.40;;
67508;SDS011;54354;44.724;11.284;2022-08-21T00:08:40;3.47;;;1.45;;
67508;SDS011;54354;44.724;11.284;2022-08-21T00:11:07;3.33;;;1.30;;
67508;SDS011;54354;44.724;11.284;2022-08-21T00:13:32;6.38;;;1.50;;
67508;SDS011;54354;44.724;11.284;2022-08-21T00:15:59;2.75;;;1.40;;
67508;SDS011;54354;44.724;11.284;2022-08-21T00:18:25;4.43;;;1.60;;
67508;SDS011;54354;44.724;11.284;2022-08-21T00:20:51;3.58;;;1.30;;
67508;SDS011;54354;44.724;11.284;2022-08-21T00:23:17;1.92;;;1.40;;
67508;SDS011;54354;44.724;11.284;2022-08-21T00:25:43;1.65;;;1.30;;
67508;SDS011;54354;44.724;11.284;2022-08-21T00:28:09;3.58;;;1.70;;
67508;SDS011;54354;44.724;11.284;2022-08-21T00:30:36;1.95;;;1.33;;
67508;SDS011;54354;44.724;11.284;2022-08-21T00:33:02;2.85;;;1.75;;
67508;SDS011;54354;44.724;11.284;2022-08-21T00:35:33;4.18;;;1.40;;
67508;SDS011;54354;44.724;11.284;2022-08-21T00:38:02;1.80;;;1.42;;
67508;SDS011;54354;44.724;11.284;2022-08-21T00:40:32;4.25;;;1.48;;
67508;SDS011;54354;44.724;11.284;2022-08-21T00:43:01;1.90;;;1.23;;
67508;SDS011;54354;44.724;11.284;2022-08-21T00:45:28;2.58;;;1.13;;
67508;SDS011;54354;44.724;11.284;2022-08-21T00:47:55;3.10;;;1.30;;
67508;SDS011;54354;44.724;11.284;2022-08-21T00:50:21;2.15;;;1.70;;
67508;SDS011;54354;44.724;11.284;2022-08-21T00:52:50;1.92;;;1.63;;
67508;SDS011;54354;44.724;11.284;2022-08-21T00:55:16;1.52;;;1.17;;
67508;SDS011;54354;44.724;11.284;2022-08-21T00:57:47;2.95;;;1.15;;
67508;SDS011;54354;44.724;11.284;2022-08-21T01:00:18;2.55;;;1.02;;
67508;SDS011;54354;44.724;11.284;2022-08-21T01:02:46;4.85;;;1.20;;
67508;SDS011;54354;44.724;11.284;2022-08-21T01:05:12;4.68;;;1.05;;
67508;SDS011;54354;44.724;11.284;2022-08-21T01:07:40;2.15;;;1.10;;
67508;SDS011;54354;44.724;11.284;2022-08-21T01:10:07;3.50;;;1.00;;
67508;SDS011;54354;44.724;11.284;2022-08-21T01:12:33;5.53;;;1.33;;
67508;SDS011;54354;44.724;11.284;2022-08-21T01:15:00;4.22;;;1.10;;
67508;SDS011;54354;44.724;11.284;2022-08-21T01:17:27;3.45;;;1.10;;
67508;SDS011;54354;44.724;11.284;2022-08-21T01:19:53;1.67;;;1.17;;
67508;SDS011;54354;44.724;11.284;2022-08-21T01:22:22;1.10;;;1.00;;
67508;SDS011;54354;44.724;11.284;2022-08-21T01:24:48;2.13;;;1.08;;
67508;SDS011;54354;44.724;11.284;2022-08-21T01:27:13;2.00;;;1.00;;
67508;SDS011;54354;44.724;11.284;2022-08-21T01:29:42;1.13;;;1.00;;
67508;SDS011;54354;44.724;11.284;2022-08-21T01:32:14;1.60;;;1.00;;
67508;SDS011;54354;44.724;11.284;2022-08-21T01:34:43;1.83;;;1.00;;
67508;SDS011;54354;44.724;11.284;2022-08-21T01:37:10;2.55;;;0.90;;
67508;SDS011;54354;44.724;11.284;2022-08-21T01:39:36;2.80;;;1.30;;
67508;SDS011;54354;44.724;11.284;2022-08-21T01:42:03;1.58;;;1.10;;
67508;SDS011;54354;44.724;11.284;2022-08-21T01:44:29;4.28;;;1.00;;
67508;SDS011;54354;44.724;11.284;2022-08-21T01:46:55;4.25;;;1.00;;
67508;SDS011;54354;44.724;11.284;2022-08-21T01:49:23;2.25;;;1.10;;
67508;SDS011;54354;44.724;11.284;2022-08-21T01:51:49;1.27;;;0.95;;
67508;SDS011;54354;44.724;11.284;2022-08-21T01:54:15;3.15;;;1.00;;
67508;SDS011;54354;44.724;11.284;2022-08-21T01:56:42;1.77;;;0.77;;
67508;SDS011;54354;44.724;11.284;2022-08-21T02:01:36;2.75;;;1.00;;
67508;SDS011;54354;44.724;11.284;2022-08-21T02:04:04;1.52;;;1.10;;
67508;SDS011;54354;44.724;11.284;2022-08-21T02:06:30;2.03;;;1.20;;
67508;SDS011;54354;44.724;11.284;2022-08-21T02:08:56;3.08;;;1.20;;
67508;SDS011;54354;44.724;11.284;2022-08-21T02:11:21;2.85;;;1.17;;
67508;SDS011;54354;44.724;11.284;2022-08-21T02:13:47;3.13;;;1.10;;
67508;SDS011;54354;44.724;11.284;2022-08-21T02:16:12;2.33;;;1.30;;
67508;SDS011;54354;44.724;11.284;2022-08-21T02:18:38;1.80;;;1.25;;
67508;SDS011;54354;44.724;11.284;2022-08-21T02:21:04;3.58;;;1.35;;
67508;SDS011;54354;44.724;11.284;2022-08-21T02:23:30;2.90;;;1.13;;
67508;SDS011;54354;44.724;11.284;2022-08-21T02:26:00;3.28;;;1.23;;
67508;SDS011;54354;44.724;11.284;2022-08-21T02:28:27;5.07;;;1.20;;
67508;SDS011;54354;44.724;11.284;2022-08-21T02:30:53;3.08;;;1.30;;
67508;SDS011;54354;44.724;11.284;2022-08-21T02:33:20;2.65;;;1.30;;
67508;SDS011;54354;44.724;11.284;2022-08-21T02:35:47;2.10;;;1.17;;
67508;SDS011;54354;44.724;11.284;2022-08-21T02:38:14;2.00;;;1.25;;
67508;SDS011;54354;44.724;11.284;2022-08-21T02:40:46;4.00;;;1.30;;
67508;SDS011;54354;44.724;11.284;2022-08-21T02:43:14;4.25;;;1.23;;
67508;SDS011;54354;44.724;11.284;2022-08-21T02:45:40;4.82;;;1.33;;
67508;SDS011;54354;44.724;11.284;2022-08-21T02:48:09;3.80;;;1.65;;
67508;SDS011;54354;44.724;11.284;2022-08-21T02:50:38;2.35;;;1.15;;
67508;SDS011;54354;44.724;11.284;2022-08-21T02:53:07;1.38;;;1.10;;
67508;SDS011;54354;44.724;11.284;2022-08-21T02:55:35;5.57;;;1.48;;
67508;SDS011;54354;44.724;11.284;2022-08-21T02:58:03;2.45;;;1.45;;
67508;SDS011;54354;44.724;11.284;2022-08-21T03:00:31;2.38;;;1.50;;
67508;SDS011;54354;44.724;11.284;2022-08-21T03:02:58;1.88;;;1.65;;
67508;SDS011;54354;44.724;11.284;2022-08-21T03:05:24;3.75;;;1.58;;
67508;SDS011;54354;44.724;11.284;2022-08-21T03:07:51;5.63;;;1.67;;
67508;SDS011;54354;44.724;11.284;2022-08-21T03:10:17;1.67;;;1.58;;
67508;SDS011;54354;44.724;11.284;2022-08-21T03:12:45;2.10;;;1.90;;
67508;SDS011;54354;44.724;11.284;2022-08-21T03:15:11;3.38;;;1.83;;
67508;SDS011;54354;44.724;11.284;2022-08-21T03:17:38;4.65;;;2.10;;
67508;SDS011;54354;44.724;11.284;2022-08-21T03:20:04;2.20;;;1.77;;
67508;SDS011;54354;44.724;11.284;2022-08-21T03:22:31;2.22;;;1.98;;
67508;SDS011;54354;44.724;11.284;2022-08-21T03:24:57;4.43;;;2.33;;
67508;SDS011;54354;44.724;11.284;2022-08-21T03:27:23;3.92;;;2.17;;
67508;SDS011;54354;44.724;11.284;2022-08-21T03:29:49;4.80;;;2.33;;
67508;SDS011;54354;44.724;11.284;2022-08-21T03:32:15;4.43;;;2.40;;
67508;SDS011;54354;44.724;11.284;2022-08-21T03:34:40;2.53;;;2.30;;
67508;SDS011;54354;44.724;11.284;2022-08-21T03:37:07;2.50;;;2.30;;
67508;SDS011;54354;44.724;11.284;2022-08-21T03:39:33;2.40;;;2.20;;
67508;SDS011;54354;44.724;11.284;2022-08-21T03:41:59;2.50;;;2.28;;
67508;SDS011;54354;44.724;11.284;2022-08-21T03:44:25;2.95;;;2.47;;
67508;SDS011;54354;44.724;11.284;2022-08-21T03:46:53;2.50;;;2.30;;
67508;SDS011;54354;44.724;11.284;2022-08-21T03:49:18;5.40;;;2.63;;
67508;SDS011;54354;44.724;11.284;2022-08-21T03:51:44;4.03;;;2.33;;
67508;SDS011;54354;44.724;11.284;2022-08-21T03:54:09;3.65;;;2.63;;
67508;SDS011;54354;44.724;11.284;2022-08-21T03:56:34;3.10;;;2.83;;
67508;SDS011;54354;44.724;11.284;2022-08-21T03:59:00;5.90;;;2.80;;
67508;SDS011;54354;44.724;11.284;2022-08-21T04:01:27;5.22;;;2.78;;
67508;SDS011;54354;44.724;11.284;2022-08-21T04:03:53;3.65;;;2.95;;
67508;SDS011;54354;44.724;11.284;2022-08-21T04:06:18;3.72;;;3.13;;
67508;SDS011;54354;44.724;11.284;2022-08-21T04:08:44;5.18;;;3.17;;
67508;SDS011;54354;44.724;11.284;2022-08-21T04:11:09;3.83;;;2.80;;
67508;SDS011;54354;44.724;11.284;2022-08-21T04:13:38;4.88;;;3.33;;
67508;SDS011;54354;44.724;11.284;2022-08-21T04:16:05;5.30;;;2.90;;
67508;SDS011;54354;44.724;11.284;2022-08-21T04:18:31;4.35;;;3.95;;
67508;SDS011;54354;44.724;11.284;2022-08-21T04:20:57;4.38;;;3.20;;
67508;SDS011;54354;44.724;11.284;2022-08-21T04:23:24;3.47;;;3.17;;
67508;SDS011;54354;44.724;11.284;2022-08-21T04:25:50;4.00;;;3.10;;
67508;SDS011;54354;44.724;11.284;2022-08-21T04:28:17;6.20;;;3.30;;
67508;SDS011;54354;44.724;11.284;2022-08-21T04:30:42;5.57;;;3.28;;
67508;SDS011;54354;44.724;11.284;2022-08-21T04:33:09;4.22;;;3.15;;
67508;SDS011;54354;44.724;11.284;2022-08-21T04:35:34;4.82;;;3.00;;
67508;SDS011;54354;44.724;11.284;2022-08-21T04:37:59;6.22;;;2.80;;
67508;SDS011;54354;44.724;11.284;2022-08-21T04:40:26;4.80;;;2.80;;
67508;SDS011;54354;44.724;11.284;2022-08-21T04:42:56;3.05;;;2.63;;
67508;SDS011;54354;44.724;11.284;2022-08-21T04:45:29;3.35;;;3.05;;
67508;SDS011;54354;44.724;11.284;2022-08-21T04:47:58;4.93;;;2.60;;
67508;SDS011;54354;44.724;11.284;2022-08-21T04:50:27;3.38;;;2.67;;
67508;SDS011;54354;44.724;11.284;2022-08-21T04:53:04;3.67;;;2.88;;
67508;SDS011;54354;44.724;11.284;2022-08-21T04:55:32;3.50;;;2.50;;
67508;SDS011;54354;44.724;11.284;2022-08-21T04:57:58;5.65;;;3.30;;
67508;SDS011;54354;44.724;11.284;2022-08-21T05:00:25;4.07;;;2.83;;
67508;SDS011;54354;44.724;11.284;2022-08-21T05:02:51;3.72;;;3.40;;
67508;SDS011;54354;44.724;11.284;2022-08-21T05:05:21;3.88;;;3.40;;
67508;SDS011;54354;44.724;11.284;2022-08-21T05:07:47;3.38;;;3.10;;
67508;SDS011;54354;44.724;11.284;2022-08-21T05:10:13;5.20;;;3.22;;
67508;SDS011;54354;44.724;11.284;2022-08-21T05:12:39;5.28;;;2.80;;
67508;SDS011;54354;44.724;11.284;2022-08-21T05:15:07;3.92;;;3.25;;
67508;SDS011;54354;44.724;11.284;2022-08-21T05:17:33;3.55;;;3.03;;
67508;SDS011;54354;44.724;11.284;2022-08-21T05:19:58;5.47;;;2.95;;
67508;SDS011;54354;44.724;11.284;2022-08-21T05:22:24;3.30;;;3.00;;
67508;SDS011;54354;44.724;11.284;2022-08-21T05:24:50;3.38;;;3.08;;
67508;SDS011;54354;44.724;11.284;2022-08-21T05:27:16;3.42;;;3.13;;
67508;SDS011;54354;44.724;11.284;2022-08-21T05:29:41;3.47;;;3.17;;
67508;SDS011;54354;44.724;11.284;2022-08-21T05:32:11;4.05;;;3.20;;
67508;SDS011;54354;44.724;11.284;2022-08-21T05:34:38;4.90;;;3.22;;
67508;SDS011;54354;44.724;11.284;2022-08-21T05:37:03;4.57;;;3.42;;
67508;SDS011;54354;44.724;11.284;2022-08-21T05:39:29;5.55;;;3.67;;
67508;SDS011;54354;44.724;11.284;2022-08-21T05:41:55;3.35;;;3.05;;
67508;SDS011;54354;44.724;11.284;2022-08-21T05:44:20;4.35;;;3.63;;
67508;SDS011;54354;44.724;11.284;2022-08-21T05:46:46;4.03;;;3.63;;
67508;SDS011;54354;44.724;11.284;2022-08-21T05:49:11;4.22;;;3.10;;
67508;SDS011;54354;44.724;11.284;2022-08-21T05:51:39;4.28;;;3.60;;
67508;SDS011;54354;44.724;11.284;2022-08-21T05:54:06;6.38;;;2.40;;
67508;SDS011;54354;44.724;11.284;2022-08-21T05:56:32;5.32;;;3.67;;
67508;SDS011;54354;44.724;11.284;2022-08-21T05:58:57;3.80;;;3.20;;
67508;SDS011;54354;44.724;11.284;2022-08-21T06:01:23;4.47;;;3.55;;
67508;SDS011;54354;44.724;11.284;2022-08-21T06:03:49;5.45;;;3.50;;
67508;SDS011;54354;44.724;11.284;2022-08-21T06:06:14;3.65;;;3.17;;
67508;SDS011;54354;44.724;11.284;2022-08-21T06:08:40;4.20;;;3.38;;
67508;SDS011;54354;44.724;11.284;2022-08-21T06:11:07;3.42;;;2.95;;
67508;SDS011;54354;44.724;11.284;2022-08-21T06:13:34;5.70;;;3.40;;
67508;SDS011;54354;44.724;11.284;2022-08-21T06:16:05;4.45;;;3.70;;
67508;SDS011;54354;44.724;11.284;2022-08-21T06:18:32;6.68;;;3.58;;
67508;SDS011;54354;44.724;11.284;2022-08-21T06:20:59;6.07;;;3.35;;
67508;SDS011;54354;44.724;11.284;2022-08-21T06:23:24;3.95;;;3.65;;
67508;SDS011;54354;44.724;11.284;2022-08-21T06:25:50;10.75;;;4.20;;
67508;SDS011;54354;44.724;11.284;2022-08-21T06:28:15;4.97;;;4.57;;
67508;SDS011;54354;44.724;11.284;2022-08-21T06:30:41;8.50;;;4.10;;
67508;SDS011;54354;44.724;11.284;2022-08-21T06:33:06;6.57;;;3.80;;
67508;SDS011;54354;44.724;11.284;2022-08-21T06:35:32;5.85;;;4.40;;
67508;SDS011;54354;44.724;11.284;2022-08-21T06:37:59;5.63;;;4.35;;
67508;SDS011;54354;44.724;11.284;2022-08-21T06:40:25;4.53;;;3.78;;
67508;SDS011;54354;44.724;11.284;2022-08-21T06:42:52;14.48;;;3.60;;
67508;SDS011;54354;44.724;11.284;2022-08-21T06:45:17;6.00;;;4.15;;
67508;SDS011;54354;44.724;11.284;2022-08-21T06:47:43;3.38;;;3.10;;
67508;SDS011;54354;44.724;11.284;2022-08-21T06:50:09;4.03;;;3.63;;
67508;SDS011;54354;44.724;11.284;2022-08-21T06:52:35;5.45;;;3.40;;
67508;SDS011;54354;44.724;11.284;2022-08-21T06:55:02;8.82;;;3.80;;
67508;SDS011;54354;44.724;11.284;2022-08-21T06:57:30;7.05;;;3.90;;
67508;SDS011;54354;44.724;11.284;2022-08-21T06:59:55;4.65;;;1.63;;
67508;SDS011;54354;44.724;11.284;2022-08-21T07:02:21;11.95;;;3.33;;
67508;SDS011;54354;44.724;11.284;2022-08-21T07:04:46;4.93;;;3.35;;
67508;SDS011;54354;44.724;11.284;2022-08-21T07:07:12;8.82;;;2.58;;
67508;SDS011;54354;44.724;11.284;2022-08-21T07:09:38;25.73;;;3.47;;
67508;SDS011;54354;44.724;11.284;2022-08-21T07:12:03;20.92;;;3.63;;
67508;SDS011;54354;44.724;11.284;2022-08-21T07:14:29;9.80;;;3.55;;
67508;SDS011;54354;44.724;11.284;2022-08-21T07:16:55;37.38;;;3.10;;
67508;SDS011;54354;44.724;11.284;2022-08-21T07:19:21;20.48;;;2.92;;
67508;SDS011;54354;44.724;11.284;2022-08-21T07:21:46;8.60;;;3.75;;
67508;SDS011;54354;44.724;11.284;2022-08-21T07:24:12;10.48;;;2.75;;
67508;SDS011;54354;44.724;11.284;2022-08-21T07:26:38;7.85;;;4.28;;
67508;SDS011;54354;44.724;11.284;2022-08-21T07:29:03;7.88;;;4.00;;
67508;SDS011;54354;44.724;11.284;2022-08-21T07:31:30;9.27;;;3.15;;
67508;SDS011;54354;44.724;11.284;2022-08-21T07:33:56;12.27;;;2.80;;
67508;SDS011;54354;44.724;11.284;2022-08-21T07:36:21;8.15;;;4.60;;
67508;SDS011;54354;44.724;11.284;2022-08-21T07:38:48;4.43;;;4.00;;
67508;SDS011;54354;44.724;11.284;2022-08-21T07:41:24;7.30;;;3.22;;
67508;SDS011;54354;44.724;11.284;2022-08-21T07:43:53;8.57;;;2.87;;
67508;SDS011;54354;44.724;11.284;2022-08-21T07:46:18;13.73;;;4.57;;
67508;SDS011;54354;44.724;11.284;2022-08-21T07:48:44;6.07;;;4.93;;
67508;SDS011;54354;44.724;11.284;2022-08-21T07:51:11;6.20;;;4.22;;
67508;SDS011;54354;44.724;11.284;2022-08-21T07:53:39;3.67;;;2.60;;
67508;SDS011;54354;44.724;11.284;2022-08-21T07:56:05;5.10;;;2.10;;
67508;SDS011;54354;44.724;11.284;2022-08-21T07:58:34;5.30;;;3.33;;
67508;SDS011;54354;44.724;11.284;2022-08-21T08:01:00;4.88;;;2.15;;
67508;SDS011;54354;44.724;11.284;2022-08-21T08:03:25;11.35;;;3.08;;
67508;SDS011;54354;44.724;11.284;2022-08-21T08:05:51;5.82;;;4.57;;
67508;SDS011;54354;44.724;11.284;2022-08-21T08:08:16;4.30;;;2.38;;
67508;SDS011;54354;44.724;11.284;2022-08-21T08:10:42;7.28;;;4.00;;
67508;SDS011;54354;44.724;11.284;2022-08-21T08:13:08;7.82;;;4.40;;
67508;SDS011;54354;44.724;11.284;2022-08-21T08:15:35;6.82;;;4.68;;
67508;SDS011;54354;44.724;11.284;2022-08-21T08:18:01;4.07;;;2.40;;
67508;SDS011;54354;44.724;11.284;2022-08-21T08:20:27;8.20;;;4.97;;
67508;SDS011;54354;44.724;11.284;2022-08-21T08:22:53;4.88;;;2.92;;
67508;SDS011;54354;44.724;11.284;2022-08-21T08:25:19;7.72;;;5.38;;
67508;SDS011;54354;44.724;11.284;2022-08-21T08:27:45;6.32;;;4.55;;
67508;SDS011;54354;44.724;11.284;2022-08-21T08:30:12;6.57;;;4.75;;
67508;SDS011;54354;44.724;11.284;2022-08-21T08:32:39;3.65;;;3.22;;
67508;SDS011;54354;44.724;11.284;2022-08-21T08:35:06;5.22;;;4.70;;
67508;SDS011;54354;44.724;11.284;2022-08-21T08:37:33;4.57;;;3.97;;
67508;SDS011;54354;44.724;11.284;2022-08-21T08:40:03;3.13;;;2.70;;
67508;SDS011;54354;44.724;11.284;2022-08-21T08:42:31;3.15;;;2.60;;
67508;SDS011;54354;44.724;11.284;2022-08-21T08:45:02;4.30;;;3.00;;
67508;SDS011;54354;44.724;11.284;2022-08-21T08:47:45;6.03;;;5.53;;
67508;SDS011;54354;44.724;11.284;2022-08-21T08:50:18;4.72;;;3.33;;
67508;SDS011;54354;44.724;11.284;2022-08-21T08:52:49;3.45;;;2.40;;
67508;SDS011;54354;44.724;11.284;2022-08-21T08:55:32;6.25;;;1.95;;
67508;SDS011;54354;44.724;11.284;2022-08-21T08:58:00;2.17;;;2.00;;
67508;SDS011;54354;44.724;11.284;2022-08-21T09:00:28;4.10;;;3.75;;
67508;SDS011;54354;44.724;11.284;2022-08-21T09:02:56;2.15;;;1.92;;
67508;SDS011;54354;44.724;11.284;2022-08-21T09:07:53;2.70;;;2.00;;
67508;SDS011;54354;44.724;11.284;2022-08-21T09:10:37;4.28;;;3.03;;
67508;SDS011;54354;44.724;11.284;2022-08-21T09:19:23;3.97;;;3.58;;
67508;SDS011;54354;44.724;11.284;2022-08-21T09:22:06;4.82;;;3.40;;
67508;SDS011;54354;44.724;11.284;2022-08-21T09:24:50;3.25;;;2.40;;
67508;SDS011;54354;44.724;11.284;2022-08-21T09:27:20;3.47;;;2.38;;
67508;SDS011;54354;44.724;11.284;2022-08-21T09:29:48;4.82;;;4.32;;
67508;SDS011;54354;44.724;11.284;2022-08-21T09:32:21;4.10;;;2.58;;
67508;SDS011;54354;44.724;11.284;2022-08-21T09:37:55;4.27;;;2.00;;
67508;SDS011;54354;44.724;11.284;2022-08-21T09:40:35;4.00;;;2.47;;
67508;SDS011;54354;44.724;11.284;2022-08-21T09:43:13;3.83;;;1.80;;
67508;SDS011;54354;44.724;11.284;2022-08-21T09:45:43;2.83;;;2.20;;
67508;SDS011;54354;44.724;11.284;2022-08-21T09:50:49;3.55;;;3.22;;
67508;SDS011;54354;44.724;11.284;2022-08-21T09:53:27;4.10;;;3.60;;
67508;SDS011;54354;44.724;11.284;2022-08-21T09:55:57;2.67;;;2.13;;
67508;SDS011;54354;44.724;11.284;2022-08-21T09:58:46;2.10;;;1.90;;
67508;SDS011;54354;44.724;11.284;2022-08-21T10:01:14;2.63;;;1.83;;
67508;SDS011;54354;44.724;11.284;2022-08-21T10:03:42;2.03;;;1.88;;
67508;SDS011;54354;44.724;11.284;2022-08-21T10:06:09;5.13;;;3.58;;
67508;SDS011;54354;44.724;11.284;2022-08-21T10:08:39;2.40;;;2.17;;
67508;SDS011;54354;44.724;11.284;2022-08-21T10:11:07;3.45;;;2.83;;
67508;SDS011;54354;44.724;11.284;2022-08-21T10:19:01;3.47;;;1.63;;
67508;SDS011;54354;44.724;11.284;2022-08-21T10:21:51;3.30;;;1.70;;
67508;SDS011;54354;44.724;11.284;2022-08-21T10:30:29;2.22;;;1.80;;
67508;SDS011;54354;44.724;11.284;2022-08-21T10:44:17;3.88;;;1.50;;
67508;SDS011;54354;44.724;11.284;2022-08-21T10:47:12;1.60;;;1.50;;
67508;SDS011;54354;44.724;11.284;2022-08-21T10:49:46;3.95;;;1.30;;
67508;SDS011;54354;44.724;11.284;2022-08-21T10:55:14;1.80;;;1.50;;
67508;SDS011;54354;44.724;11.284;2022-08-21T10:57:44;4.25;;;1.33;;
67508;SDS011;54354;44.724;11.284;2022-08-21T11:00:16;1.77;;;1.67;;
67508;SDS011;54354;44.724;11.284;2022-08-21T11:02:52;2.05;;;1.55;;
67508;SDS011;54354;44.724;11.284;2022-08-21T11:05:25;3.58;;;1.40;;
67508;SDS011;54354;44.724;11.284;2022-08-21T11:07:59;1.48;;;1.38;;
67508;SDS011;54354;44.724;11.284;2022-08-21T11:16:11;2.67;;;1.40;;
67508;SDS011;54354;44.724;11.284;2022-08-21T11:18:49;3.45;;;1.70;;
67508;SDS011;54354;44.724;11.284;2022-08-21T11:21:36;1.40;;;1.30;;
67508;SDS011;54354;44.724;11.284;2022-08-21T11:27:05;2.00;;;1.30;;
67508;SDS011;54354;44.724;11.284;2022-08-21T11:29:33;1.60;;;1.20;;
67508;SDS011;54354;44.724;11.284;2022-08-21T11:36:58;1.33;;;1.25;;
67508;SDS011;54354;44.724;11.284;2022-08-21T11:42:04;1.48;;;1.10;;
67508;SDS011;54354;44.724;11.284;2022-08-21T11:45:02;1.50;;;1.30;;
67508;SDS011;54354;44.724;11.284;2022-08-21T11:50:29;1.70;;;0.93;;
67508;SDS011;54354;44.724;11.284;2022-08-21T11:52:59;1.35;;;1.10;;
67508;SDS011;54354;44.724;11.284;2022-08-21T11:55:33;1.63;;;1.08;;
67508;SDS011;54354;44.724;11.284;2022-08-21T11:58:11;1.02;;;0.93;;
67508;SDS011;54354;44.724;11.284;2022-08-21T12:00:50;1.45;;;1.13;;
67508;SDS011;54354;44.724;11.284;2022-08-21T12:06:01;1.08;;;0.95;;
67508;SDS011;54354;44.724;11.284;2022-08-21T12:08:35;1.67;;;1.05;;
67508;SDS011;54354;44.724;11.284;2022-08-21T12:11:08;1.25;;;1.15;;
67508;SDS011;54354;44.724;11.284;2022-08-21T12:13:58;1.88;;;1.05;;
67508;SDS011;54354;44.724;11.284;2022-08-21T12:16:31;1.05;;;0.80;;
67508;SDS011;54354;44.724;11.284;2022-08-21T12:21:28;2.00;;;1.08;;
67508;SDS011;54354;44.724;11.284;2022-08-21T12:24:02;4.03;;;1.00;;
67508;SDS011;54354;44.724;11.284;2022-08-21T12:26:53;1.13;;;0.90;;
67508;SDS011;54354;44.724;11.284;2022-08-21T12:29:35;1.80;;;1.05;;
67508;SDS011;54354;44.724;11.284;2022-08-21T12:32:03;0.50;;;0.50;;
67508;SDS011;54354;44.724;11.284;2022-08-21T12:34:50;0.63;;;0.60;;
67508;SDS011;54354;44.724;11.284;2022-08-21T12:37:22;2.15;;;0.80;;
67508;SDS011;54354;44.724;11.284;2022-08-21T12:39:51;2.28;;;0.82;;
67508;SDS011;54354;44.724;11.284;2022-08-21T12:42:19;2.05;;;0.80;;
67508;SDS011;54354;44.724;11.284;2022-08-21T12:44:59;0.60;;;0.60;;
67508;SDS011;54354;44.724;11.284;2022-08-21T12:47:46;0.68;;;0.68;;
67508;SDS011;54354;44.724;11.284;2022-08-21T12:50:20;0.80;;;0.80;;
67508;SDS011;54354;44.724;11.284;2022-08-21T12:52:57;1.42;;;0.80;;
67508;SDS011;54354;44.724;11.284;2022-08-21T12:55:28;2.35;;;0.70;;
67508;SDS011;54354;44.724;11.284;2022-08-21T12:57:55;1.75;;;0.82;;
67508;SDS011;54354;44.724;11.284;2022-08-21T13:00:24;1.50;;;0.63;;
67508;SDS011;54354;44.724;11.284;2022-08-21T13:02:51;0.93;;;0.73;;
67508;SDS011;54354;44.724;11.284;2022-08-21T13:05:29;0.55;;;0.50;;
67508;SDS011;54354;44.724;11.284;2022-08-21T13:08:05;0.60;;;0.60;;
67508;SDS011;54354;44.724;11.284;2022-08-21T13:10:33;1.25;;;0.63;;
67508;SDS011;54354;44.724;11.284;2022-08-21T13:13:01;0.60;;;0.57;;
67508;SDS011;54354;44.724;11.284;2022-08-21T13:15:31;0.65;;;0.60;;
67508;SDS011;54354;44.724;11.284;2022-08-21T13:17:59;0.68;;;0.68;;
67508;SDS011;54354;44.724;11.284;2022-08-21T13:22:56;0.70;;;0.70;;
67508;SDS011;54354;44.724;11.284;2022-08-21T13:25:26;1.25;;;0.70;;
67508;SDS011;54354;44.724;11.284;2022-08-21T13:27:58;0.75;;;0.70;;
67508;SDS011;54354;44.724;11.284;2022-08-21T13:30:25;0.88;;;0.80;;
67508;SDS011;54354;44.724;11.284;2022-08-21T13:32:52;1.58;;;0.80;;
67508;SDS011;54354;44.724;11.284;2022-08-21T13:35:35;0.60;;;0.60;;
67508;SDS011;54354;44.724;11.284;2022-08-21T13:38:12;0.80;;;0.60;;
67508;SDS011;54354;44.724;11.284;2022-08-21T13:40:44;2.28;;;0.57;;
67508;SDS011;54354;44.724;11.284;2022-08-21T13:43:14;0.60;;;0.60;;
67508;SDS011;54354;44.724;11.284;2022-08-21T13:45:44;0.50;;;0.50;;
67508;SDS011;54354;44.724;11.284;2022-08-21T13:48:13;0.93;;;0.77;;
67508;SDS011;54354;44.724;11.284;2022-08-21T13:50:39;1.85;;;0.70;;
67508;SDS011;54354;44.724;11.284;2022-08-21T13:53:07;1.83;;;0.80;;
67508;SDS011;54354;44.724;11.284;2022-08-21T13:55:47;1.23;;;0.88;;
67508;SDS011;54354;44.724;11.284;2022-08-21T13:58:13;0.65;;;0.65;;
67508;SDS011;54354;44.724;11.284;2022-08-21T14:00:53;2.05;;;0.80;;
67508;SDS011;54354;44.724;11.284;2022-08-21T14:06:14;0.80;;;0.80;;
67508;SDS011;54354;44.724;11.284;2022-08-21T14:08:54;0.98;;;0.88;;
67508;SDS011;54354;44.724;11.284;2022-08-21T14:11:23;1.92;;;0.80;;
67508;SDS011;54354;44.724;11.284;2022-08-21T14:13:58;4.70;;;0.80;;
67508;SDS011;54354;44.724;11.284;2022-08-21T14:16:41;2.95;;;0.90;;
67508;SDS011;54354;44.724;11.284;2022-08-21T14:19:20;1.52;;;1.10;;
67508;SDS011;54354;44.724;11.284;2022-08-21T14:21:48;0.95;;;0.80;;
67508;SDS011;54354;44.724;11.284;2022-08-21T14:26:50;2.83;;;0.85;;
67508;SDS011;54354;44.724;11.284;2022-08-21T14:29:19;1.40;;;1.05;;
67508;SDS011;54354;44.724;11.284;2022-08-21T14:31:51;0.90;;;0.73;;
67508;SDS011;54354;44.724;11.284;2022-08-21T14:34:19;0.80;;;0.80;;
67508;SDS011;54354;44.724;11.284;2022-08-21T14:36:46;1.65;;;0.90;;
67508;SDS011;54354;44.724;11.284;2022-08-21T14:39:12;1.23;;;1.00;;
67508;SDS011;54354;44.724;11.284;2022-08-21T14:41:38;1.95;;;1.00;;
67508;SDS011;54354;44.724;11.284;2022-08-21T14:44:03;3.15;;;0.80;;
67508;SDS011;54354;44.724;11.284;2022-08-21T14:46:30;0.82;;;0.80;;
67508;SDS011;54354;44.724;11.284;2022-08-21T14:48:57;0.75;;;0.75;;
67508;SDS011;54354;44.724;11.284;2022-08-21T14:51:23;2.58;;;0.90;;
67508;SDS011;54354;44.724;11.284;2022-08-21T14:53:49;2.08;;;0.73;;
67508;SDS011;54354;44.724;11.284;2022-08-21T14:56:15;3.10;;;0.90;;
67508;SDS011;54354;44.724;11.284;2022-08-21T14:58:42;1.00;;;0.90;;
67508;SDS011;54354;44.724;11.284;2022-08-21T15:01:10;0.90;;;0.80;;
67508;SDS011;54354;44.724;11.284;2022-08-21T15:03:38;1.25;;;0.77;;
67508;SDS011;54354;44.724;11.284;2022-08-21T15:06:04;3.08;;;0.70;;
67508;SDS011;54354;44.724;11.284;2022-08-21T15:08:31;0.98;;;0.80;;
67508;SDS011;54354;44.724;11.284;2022-08-21T15:10:58;2.90;;;0.85;;
67508;SDS011;54354;44.724;11.284;2022-08-21T15:13:24;0.82;;;0.82;;
67508;SDS011;54354;44.724;11.284;2022-08-21T15:15:50;0.90;;;0.70;;
67508;SDS011;54354;44.724;11.284;2022-08-21T15:18:19;0.60;;;0.55;;
67508;SDS011;54354;44.724;11.284;2022-08-21T15:20:45;0.95;;;0.77;;
67508;SDS011;54354;44.724;11.284;2022-08-21T15:23:11;1.83;;;0.80;;
67508;SDS011;54354;44.724;11.284;2022-08-21T15:25:39;1.08;;;0.80;;
67508;SDS011;54354;44.724;11.284;2022-08-21T15:28:06;0.88;;;0.80;;
67508;SDS011;54354;44.724;11.284;2022-08-21T15:30:32;1.13;;;0.80;;
67508;SDS011;54354;44.724;11.284;2022-08-21T15:32:58;1.45;;;1.00;;
67508;SDS011;54354;44.724;11.284;2022-08-21T15:35:24;2.95;;;0.95;;
67508;SDS011;54354;44.724;11.284;2022-08-21T15:37:49;2.67;;;0.93;;
67508;SDS011;54354;44.724;11.284;2022-08-21T15:40:15;1.92;;;0.90;;
67508;SDS011;54354;44.724;11.284;2022-08-21T15:42:41;3.25;;;0.90;;
67508;SDS011;54354;44.724;11.284;2022-08-21T15:45:07;3.05;;;0.90;;
67508;SDS011;54354;44.724;11.284;2022-08-21T15:47:34;0.98;;;0.90;;
67508;SDS011;54354;44.724;11.284;2022-08-21T15:50:02;2.13;;;0.70;;
67508;SDS011;54354;44.724;11.284;2022-08-21T15:52:30;1.15;;;0.82;;
67508;SDS011;54354;44.724;11.284;2022-08-21T15:54:55;1.75;;;0.90;;
67508;SDS011;54354;44.724;11.284;2022-08-21T15:57:21;1.45;;;0.90;;
67508;SDS011;54354;44.724;11.284;2022-08-21T15:59:53;2.22;;;0.90;;